createdAt,value
2023-04-16T00:04:34.543Z,100.00
2023-04-16T00:09:37.157Z,100.00
2023-04-16T00:14:39.642Z,99.97
2023-04-16T00:19:42.125Z,99.85
2023-04-16T00:24:45.164Z,99.87
2023-04-16T00:29:47.751Z,99.97
2023-04-16T00:34:50.264Z,100.00
2023-04-16T00:39:52.839Z,100.00
2023-04-16T00:44:55.414Z,100.00
2023-04-16T00:49:57.985Z,100.00
2023-04-16T00:55:00.976Z,100.00
2023-04-16T01:00:04.104Z,100.00
2023-04-16T01:05:06.818Z,100.00
2023-04-16T01:10:09.382Z,100.00
2023-04-16T01:15:11.932Z,100.00
2023-04-16T01:20:14.750Z,100.00
2023-04-16T01:25:17.693Z,100.00
2023-04-16T01:30:20.292Z,100.00
2023-04-16T01:35:22.806Z,100.00
2023-04-16T01:40:25.468Z,100.00
2023-04-16T01:45:28.027Z,100.00
2023-04-16T01:50:31.180Z,100.00
2023-04-16T01:55:34.342Z,100.00
2023-04-16T02:00:36.953Z,100.00
2023-04-16T02:05:39.995Z,100.00
2023-04-16T02:10:42.476Z,100.00
2023-04-16T02:15:49.797Z,100.00
2023-04-16T02:20:52.303Z,100.00
2023-04-16T02:25:55.106Z,100.00
2023-04-16T02:30:57.606Z,100.00
2023-04-16T02:36:00.318Z,100.00
2023-04-16T02:41:03.104Z,100.00
2023-04-16T02:46:05.851Z,100.00
2023-04-16T02:51:08.733Z,100.00
2023-04-16T02:56:12.140Z,100.00
2023-04-16T03:01:14.695Z,100.00
2023-04-16T03:06:17.265Z,100.00
2023-04-16T03:11:20.315Z,100.00
2023-04-16T03:16:23.160Z,100.00
2023-04-16T03:21:27.510Z,99.99
2023-04-16T03:26:30.257Z,100.00
2023-04-16T03:31:32.838Z,100.00
2023-04-16T03:36:35.377Z,100.00
2023-04-16T03:41:37.903Z,100.00
2023-04-16T03:46:40.457Z,100.00
2023-04-16T03:51:43.010Z,100.00
2023-04-16T03:56:45.560Z,100.00
2023-04-16T04:01:48.228Z,100.00
2023-04-16T04:06:50.861Z,100.00
2023-04-16T04:11:53.409Z,100.00
2023-04-16T04:16:55.953Z,100.00
2023-04-16T04:21:58.705Z,100.00
2023-04-16T04:27:02.077Z,100.00
2023-04-16T04:32:05.021Z,100.00
2023-04-16T04:37:07.628Z,100.00
2023-04-16T04:42:10.381Z,100.00
2023-04-16T04:47:13.683Z,100.00
2023-04-16T04:52:16.251Z,100.00
2023-04-16T04:57:18.847Z,100.00
2023-04-16T05:02:21.520Z,99.99
2023-04-16T05:07:24.219Z,99.90
2023-04-16T05:12:26.721Z,99.85
2023-04-16T05:17:29.600Z,99.62
2023-04-16T05:22:32.270Z,98.95
2023-04-16T05:27:34.909Z,98.97
2023-04-16T05:32:39.370Z,99.02
2023-04-16T05:37:42.101Z,98.88
2023-04-16T05:42:44.625Z,98.52
2023-04-16T05:47:47.667Z,97.58
2023-04-16T05:52:50.255Z,97.51
2023-04-16T05:57:52.774Z,97.13
2023-04-16T06:02:55.700Z,96.96
2023-04-16T06:07:58.426Z,96.41
2023-04-16T06:13:00.989Z,95.13
2023-04-16T06:18:03.602Z,93.78
2023-04-16T06:23:06.237Z,93.29
2023-04-16T06:28:08.785Z,92.42
2023-04-16T06:33:11.372Z,90.50
2023-04-16T06:38:14.518Z,91.06
2023-04-16T06:43:17.979Z,91.51
2023-04-16T06:48:20.636Z,91.27
2023-04-16T06:53:25.127Z,90.29
2023-04-16T06:58:27.861Z,89.96
2023-04-16T07:03:31.312Z,89.93
2023-04-16T07:08:33.923Z,90.07
2023-04-16T07:13:36.406Z,89.31
2023-04-16T07:18:39.041Z,87.80
2023-04-16T07:23:41.757Z,87.07
2023-04-16T07:28:44.382Z,87.18
2023-04-16T07:33:46.875Z,86.12
2023-04-16T07:38:49.372Z,85.40
2023-04-16T07:43:51.959Z,84.82
2023-04-16T07:48:54.434Z,84.68
2023-04-16T07:53:57.102Z,83.98
2023-04-16T07:59:14.912Z,84.25
2023-04-16T08:04:26.417Z,83.63
2023-04-16T08:09:29.492Z,82.81
2023-04-16T08:14:32.281Z,81.82
2023-04-16T08:19:34.829Z,81.57
2023-04-16T08:24:37.857Z,81.41
2023-04-16T08:29:40.412Z,80.86
2023-04-16T08:34:43.347Z,80.75
2023-04-16T08:39:46.114Z,80.39
2023-04-16T08:44:50.369Z,80.61
2023-04-16T08:49:58.402Z,80.37
2023-04-16T08:55:08.705Z,80.76
2023-04-16T09:00:13.356Z,81.52
2023-04-16T09:05:21.631Z,81.86
2023-04-16T09:10:26.388Z,82.19
2023-04-16T09:15:29.495Z,82.59
2023-04-16T09:20:32.000Z,82.69
2023-04-16T09:25:35.210Z,83.42
2023-04-16T09:30:38.043Z,84.03
2023-04-16T09:35:54.167Z,84.13
2023-04-16T09:41:13.442Z,84.05
2023-04-16T09:46:16.018Z,83.62
2023-04-16T09:51:18.607Z,83.20
2023-04-16T09:56:25.900Z,82.82
2023-04-16T10:01:30.926Z,82.71
2023-04-16T10:06:35.500Z,81.19
2023-04-16T10:11:39.356Z,80.58
2023-04-16T10:16:43.965Z,80.40
2023-04-16T10:21:47.413Z,79.58
2023-04-16T10:26:52.228Z,79.58
2023-04-16T10:31:56.772Z,79.69
2023-04-16T10:36:59.284Z,79.42
2023-04-16T10:42:17.044Z,79.91
2023-04-16T10:47:19.806Z,80.77
2023-04-16T10:52:26.118Z,80.13
2023-04-16T10:57:29.879Z,79.33
2023-04-16T11:02:32.896Z,79.26
2023-04-16T11:07:36.082Z,80.09
2023-04-16T11:12:41.354Z,79.92
2023-04-16T11:17:46.361Z,80.19
2023-04-16T11:22:50.490Z,80.76
2023-04-16T11:27:53.792Z,80.77
2023-04-16T11:32:56.594Z,81.21
2023-04-16T11:37:59.544Z,81.55
2023-04-16T11:43:13.884Z,81.19
2023-04-16T11:48:16.562Z,81.30
2023-04-16T11:53:19.423Z,81.42
2023-04-16T11:58:23.370Z,81.30
2023-04-16T12:03:46.214Z,81.00
2023-04-16T12:08:49.053Z,80.79
2023-04-16T12:14:09.858Z,80.32
2023-04-16T12:19:13.574Z,80.74
2023-04-16T12:24:20.849Z,81.19
2023-04-16T12:29:27.941Z,81.72
2023-04-16T12:34:49.247Z,81.50
2023-04-16T12:39:52.266Z,81.62
2023-04-16T12:44:54.772Z,82.07
2023-04-16T12:49:57.931Z,82.62
2023-04-16T12:55:02.835Z,82.65
2023-04-16T13:00:10.606Z,82.58
2023-04-16T13:05:16.545Z,82.35
2023-04-16T13:10:21.456Z,82.08
2023-04-16T13:15:24.847Z,82.20
2023-04-16T13:20:29.057Z,82.02
2023-04-16T13:25:31.798Z,81.68
2023-04-16T13:30:34.680Z,81.52
2023-04-16T13:35:37.355Z,81.56
2023-04-16T13:40:40.107Z,80.97
2023-04-16T13:45:42.698Z,81.43
2023-04-16T13:50:45.289Z,81.57
2023-04-16T13:55:49.565Z,80.49
2023-04-16T14:00:52.280Z,79.88
2023-04-16T14:05:54.981Z,79.95
2023-04-16T14:10:58.372Z,80.13
2023-04-16T14:16:02.956Z,79.94
2023-04-16T14:21:05.807Z,79.49
2023-04-16T14:26:08.476Z,78.75
2023-04-16T14:31:11.134Z,77.74
2023-04-16T14:36:14.189Z,77.54
2023-04-16T14:41:16.961Z,77.60
2023-04-16T14:46:19.664Z,76.81
2023-04-16T14:51:22.541Z,75.92
2023-04-16T14:56:25.821Z,75.00
2023-04-16T15:01:28.597Z,75.32
2023-04-16T15:06:32.294Z,76.08
2023-04-16T15:11:35.299Z,76.22
2023-04-16T15:16:37.975Z,76.57
2023-04-16T15:21:40.878Z,77.00
2023-04-16T15:26:43.777Z,77.63
2023-04-16T15:31:47.663Z,78.20
2023-04-16T15:36:50.623Z,78.76
2023-04-16T15:42:01.486Z,79.29
2023-04-16T15:47:06.437Z,79.52
2023-04-16T15:52:11.163Z,79.80
2023-04-16T15:57:13.696Z,80.09
2023-04-16T16:02:16.333Z,80.41
2023-04-16T16:07:19.966Z,80.59
2023-04-16T16:12:22.564Z,80.61
2023-04-16T16:17:25.585Z,80.96
2023-04-16T16:22:28.586Z,80.95
2023-04-16T16:27:31.144Z,81.32
2023-04-16T16:32:34.058Z,81.55
2023-04-16T16:37:37.670Z,81.77
2023-04-16T16:42:40.198Z,81.95
2023-04-16T16:47:42.783Z,82.13
2023-04-16T16:52:45.387Z,82.61
2023-04-16T16:57:47.932Z,82.65
2023-04-16T17:02:51.912Z,82.70
2023-04-16T17:07:54.718Z,82.76
2023-04-16T17:12:57.241Z,82.82
2023-04-16T17:17:59.834Z,83.05
2023-04-16T17:23:02.980Z,83.53
2023-04-16T17:28:05.548Z,83.78
2023-04-16T17:33:08.164Z,83.91
2023-04-16T17:38:11.697Z,84.21
2023-04-16T17:43:14.207Z,84.40
2023-04-16T17:48:16.789Z,84.65
2023-04-16T17:53:19.518Z,84.95
2023-04-16T17:58:22.156Z,85.06
2023-04-16T18:03:24.940Z,85.37
2023-04-16T18:08:28.775Z,85.52
2023-04-16T18:13:31.427Z,85.51
2023-04-16T18:18:34.231Z,85.69
2023-04-16T18:23:36.761Z,85.85
2023-04-16T18:28:39.411Z,86.14
2023-04-16T18:33:53.998Z,86.35
2023-04-16T18:39:01.615Z,86.47
2023-04-16T18:44:05.246Z,86.44
2023-04-16T18:49:07.825Z,86.35
2023-04-16T18:54:10.407Z,86.38
2023-04-16T18:59:13.330Z,86.55
2023-04-16T19:04:16.276Z,86.76
2023-04-16T19:09:19.934Z,86.78
2023-04-16T19:14:22.517Z,86.96
2023-04-16T19:19:25.068Z,87.08
2023-04-16T19:24:27.640Z,87.09
2023-04-16T19:29:34.083Z,87.32
2023-04-16T19:34:36.820Z,87.46
2023-04-16T19:39:39.388Z,87.64
2023-04-16T19:44:41.914Z,87.67
2023-04-16T19:49:44.444Z,87.93
2023-04-16T19:54:47.779Z,88.16
2023-04-16T19:59:50.488Z,88.17
2023-04-16T20:04:53.235Z,88.28
2023-04-16T20:09:55.864Z,88.34
2023-04-16T20:14:58.547Z,88.54
2023-04-16T20:20:07.199Z,88.77
2023-04-16T20:25:10.110Z,88.86
2023-04-16T20:30:13.931Z,89.08
2023-04-16T20:35:16.636Z,88.87
2023-04-16T20:40:19.919Z,89.10
2023-04-16T20:45:24.228Z,89.23
2023-04-16T20:50:26.788Z,89.24
2023-04-16T20:55:29.321Z,89.46
2023-04-16T21:00:31.849Z,89.54
2023-04-16T21:05:34.437Z,89.66
2023-04-16T21:10:36.940Z,89.95
2023-04-16T21:15:40.427Z,90.09
2023-04-16T21:20:43.090Z,90.19
2023-04-16T21:25:45.664Z,90.21
2023-04-16T21:30:52.253Z,90.34
2023-04-16T21:35:55.049Z,90.54
2023-04-16T21:40:57.649Z,90.50
2023-04-16T21:46:00.405Z,90.62
2023-04-16T21:51:06.617Z,90.59
2023-04-16T21:56:09.399Z,90.61
2023-04-16T22:01:12.251Z,90.70
2023-04-16T22:06:16.708Z,90.68
2023-04-16T22:11:19.349Z,90.56
2023-04-16T22:16:21.913Z,90.46
2023-04-16T22:21:24.893Z,90.32
2023-04-16T22:26:27.610Z,90.58
2023-04-16T22:31:30.200Z,91.05
2023-04-16T22:36:32.779Z,91.02
2023-04-16T22:41:36.806Z,91.23
2023-04-16T22:46:39.383Z,91.35
2023-04-16T22:51:42.486Z,91.61
2023-04-16T22:56:46.774Z,91.79
2023-04-16T23:01:49.686Z,91.52
2023-04-16T23:06:52.366Z,91.28
2023-04-16T23:11:54.861Z,91.31
2023-04-16T23:16:57.566Z,91.34
2023-04-16T23:22:00.066Z,91.44
2023-04-16T23:27:02.690Z,91.71
2023-04-16T23:32:05.660Z,91.97
2023-04-16T23:37:08.153Z,92.20
2023-04-16T23:42:11.263Z,91.88
2023-04-16T23:47:13.804Z,91.82
2023-04-16T23:52:16.334Z,91.88
2023-04-16T23:57:18.829Z,91.88
